createdAt,value
2022-09-27T00:01:19.251Z,13.88
2022-09-27T00:03:47.851Z,14.23
2022-09-27T00:06:25.399Z,12.93
2022-09-27T00:08:54.016Z,15.00
2022-09-27T00:11:29.793Z,13.82
2022-09-27T00:14:00.773Z,14.25
2022-09-27T00:16:32.805Z,14.82
2022-09-27T00:19:04.677Z,14.25
2022-09-27T00:21:35.373Z,14.05
2022-09-27T00:24:04.341Z,14.40
2022-09-27T00:26:33.207Z,13.98
2022-09-27T00:29:01.956Z,14.85
2022-09-27T00:31:32.633Z,14.45
2022-09-27T00:34:03.897Z,15.68
2022-09-27T00:36:35.509Z,16.42
2022-09-27T00:39:04.502Z,16.52
2022-09-27T00:41:36.991Z,17.02
2022-09-27T00:44:59.937Z,17.52
2022-09-27T00:47:37.109Z,17.58
2022-09-27T00:50:15.559Z,17.55
2022-09-27T00:52:55.302Z,17.65
2022-09-27T00:55:31.464Z,17.35
2022-09-27T00:58:00.882Z,17.60
2022-09-27T01:00:29.671Z,17.27
2022-09-27T01:02:59.307Z,17.08
2022-09-27T01:05:30.365Z,17.58
2022-09-27T01:08:01.208Z,15.70
2022-09-27T01:10:40.253Z,16.63
2022-09-27T01:13:20.305Z,16.55
2022-09-27T01:15:59.668Z,16.80
2022-09-27T01:18:39.988Z,17.27
2022-09-27T01:21:43.567Z,17.70
2022-09-27T01:24:56.507Z,16.73
2022-09-27T01:28:11.526Z,17.45
2022-09-27T01:30:51.344Z,17.30
2022-09-27T01:33:37.936Z,17.17
2022-09-27T01:36:23.600Z,18.50
2022-09-27T01:39:19.881Z,17.42
2022-09-27T01:42:25.172Z,19.13
2022-09-27T01:45:07.828Z,17.25
2022-09-27T01:47:53.133Z,17.33
2022-09-27T01:50:47.484Z,17.10
2022-09-27T01:53:23.086Z,17.13
2022-09-27T01:56:16.206Z,18.88
2022-09-27T01:59:11.203Z,19.52
2022-09-27T02:01:51.755Z,20.20
2022-09-27T02:04:29.696Z,18.63
2022-09-27T02:07:17.939Z,18.27
2022-09-27T02:09:54.237Z,19.20
2022-09-27T02:12:36.652Z,18.75
2022-09-27T02:15:15.402Z,19.30
2022-09-27T02:17:59.373Z,19.63
2022-09-27T02:20:36.145Z,17.83
2022-09-27T02:23:20.186Z,18.40
2022-09-27T02:25:58.542Z,18.13
2022-09-27T02:28:34.184Z,17.98
2022-09-27T02:31:03.520Z,17.85
2022-09-27T02:33:43.501Z,18.88
2022-09-27T02:36:15.266Z,19.90
2022-09-27T02:38:45.523Z,18.70
2022-09-27T02:41:18.267Z,19.55
2022-09-27T02:43:53.345Z,18.48
2022-09-27T02:46:58.593Z,19.33
2022-09-27T02:50:04.449Z,17.75
2022-09-27T02:53:08.041Z,18.95
2022-09-27T02:55:54.188Z,17.38
2022-09-27T02:58:59.882Z,18.05
2022-09-27T03:01:57.934Z,18.13
2022-09-27T03:04:42.049Z,17.58
2022-09-27T03:07:11.249Z,18.38
2022-09-27T03:09:48.205Z,18.40
2022-09-27T03:12:22.710Z,19.52
2022-09-27T03:14:51.500Z,19.75
2022-09-27T03:17:55.276Z,19.30
2022-09-27T03:20:42.635Z,18.98
2022-09-27T03:23:17.032Z,18.65
2022-09-27T03:25:47.477Z,19.30
2022-09-27T03:28:16.721Z,19.55
2022-09-27T03:30:47.573Z,20.08
2022-09-27T03:33:36.311Z,22.20
2022-09-27T03:36:09.764Z,20.00
2022-09-27T03:38:39.240Z,19.65
2022-09-27T03:41:12.072Z,19.33
2022-09-27T03:43:41.472Z,20.08
2022-09-27T03:46:10.173Z,20.52
2022-09-27T03:48:39.048Z,19.15
2022-09-27T03:51:08.482Z,19.42
2022-09-27T03:53:37.199Z,19.42
2022-09-27T03:56:06.539Z,19.50
2022-09-27T03:58:37.709Z,19.45
2022-09-27T04:01:07.251Z,19.98
2022-09-27T04:03:38.251Z,19.02
2022-09-27T04:06:28.328Z,18.75
2022-09-27T04:08:57.209Z,18.95
2022-09-27T04:11:34.189Z,18.50
2022-09-27T04:14:05.664Z,18.95
2022-09-27T04:16:41.636Z,18.15
2022-09-27T04:19:31.191Z,17.45
2022-09-27T04:22:08.946Z,16.92
2022-09-27T04:24:37.973Z,16.98
2022-09-27T04:27:22.069Z,17.10
2022-09-27T04:29:54.296Z,16.40
2022-09-27T04:32:43.942Z,17.83
2022-09-27T04:35:53.381Z,18.67
2022-09-27T04:38:24.113Z,17.17
2022-09-27T04:40:53.357Z,18.73
2022-09-27T04:43:22.686Z,17.88
2022-09-27T04:45:52.699Z,17.27
2022-09-27T04:48:21.776Z,17.35
2022-09-27T04:50:58.499Z,16.95
2022-09-27T04:53:27.589Z,18.52
2022-09-27T04:55:56.930Z,17.45
2022-09-27T04:58:26.637Z,17.67
2022-09-27T05:00:57.068Z,16.77
2022-09-27T05:03:43.876Z,18.08
2022-09-27T05:06:14.831Z,18.05
2022-09-27T05:08:45.690Z,17.38
2022-09-27T05:11:17.273Z,18.10
2022-09-27T05:14:06.183Z,18.38
2022-09-27T05:16:45.310Z,18.10
2022-09-27T05:19:43.179Z,19.08
2022-09-27T05:22:17.698Z,18.30
2022-09-27T05:24:47.197Z,19.95
2022-09-27T05:27:20.541Z,19.65
2022-09-27T05:29:50.276Z,21.67
2022-09-27T05:32:27.193Z,21.38
2022-09-27T05:35:23.037Z,22.17
2022-09-27T05:37:57.367Z,23.45
2022-09-27T05:40:44.712Z,25.02
2022-09-27T05:43:13.888Z,22.60
2022-09-27T05:45:44.221Z,21.80
2022-09-27T05:48:15.636Z,23.65
2022-09-27T05:50:49.123Z,24.65
2022-09-27T05:53:18.778Z,22.48
2022-09-27T05:55:48.722Z,22.02
2022-09-27T05:58:19.375Z,23.25
2022-09-27T06:00:54.280Z,23.20
2022-09-27T06:03:47.792Z,23.70
2022-09-27T06:06:16.710Z,23.17
2022-09-27T06:08:51.037Z,23.65
2022-09-27T06:11:21.302Z,24.33
2022-09-27T06:13:51.947Z,23.98
2022-09-27T06:16:21.264Z,24.75
2022-09-27T06:18:52.141Z,25.02
2022-09-27T06:21:21.378Z,25.45
2022-09-27T06:23:56.575Z,25.45
2022-09-27T06:26:31.866Z,25.98
2022-09-27T06:29:15.682Z,25.27
2022-09-27T06:31:52.690Z,24.58
2022-09-27T06:34:32.756Z,23.50
2022-09-27T06:37:01.522Z,23.40
2022-09-27T06:39:33.282Z,24.80
2022-09-27T06:42:30.543Z,24.45
2022-09-27T06:45:12.606Z,23.77
2022-09-27T06:48:02.585Z,24.48
2022-09-27T06:50:49.186Z,23.25
2022-09-27T06:53:18.884Z,23.08
2022-09-27T06:55:47.598Z,21.92
2022-09-27T06:58:34.062Z,22.13
2022-09-27T07:01:29.829Z,21.02
2022-09-27T07:04:27.220Z,20.25
2022-09-27T07:07:07.003Z,19.65
2022-09-27T07:10:03.349Z,18.10
2022-09-27T07:12:37.630Z,16.75
2022-09-27T07:15:07.681Z,16.98
2022-09-27T07:17:37.471Z,17.13
2022-09-27T07:20:07.766Z,17.63
2022-09-27T07:22:43.171Z,17.10
2022-09-27T07:25:13.615Z,17.08
2022-09-27T07:27:42.369Z,17.08
2022-09-27T07:30:13.867Z,17.23
2022-09-27T07:32:43.517Z,19.10
2022-09-27T07:35:15.633Z,18.13
2022-09-27T07:37:47.265Z,18.17
2022-09-27T07:40:16.063Z,16.35
2022-09-27T07:42:44.671Z,17.02
2022-09-27T07:45:14.042Z,18.08
2022-09-27T07:48:05.542Z,18.30
2022-09-27T07:50:54.146Z,18.55
2022-09-27T07:53:43.405Z,18.10
2022-09-27T07:56:41.101Z,17.08
2022-09-27T07:59:12.960Z,17.63
2022-09-27T08:01:41.905Z,17.65
2022-09-27T08:04:10.882Z,20.13
2022-09-27T08:06:40.057Z,17.15
2022-09-27T08:09:10.441Z,19.23
2022-09-27T08:11:41.098Z,19.77
2022-09-27T08:14:11.685Z,19.00
2022-09-27T08:16:42.756Z,19.52
2022-09-27T08:19:20.098Z,18.52
2022-09-27T08:22:24.833Z,17.52
2022-09-27T08:25:01.752Z,18.75
2022-09-27T08:27:44.875Z,18.52
2022-09-27T08:30:21.669Z,16.90
2022-09-27T08:32:50.257Z,17.13
2022-09-27T08:35:18.941Z,17.35
2022-09-27T08:37:55.734Z,17.13
2022-09-27T08:40:39.154Z,17.33
2022-09-27T08:43:21.266Z,17.50
2022-09-27T08:46:08.773Z,17.27
2022-09-27T08:48:41.135Z,16.42
2022-09-27T08:51:15.622Z,17.77
2022-09-27T08:53:52.271Z,18.27
2022-09-27T08:56:24.241Z,19.15
2022-09-27T08:58:59.887Z,17.75
2022-09-27T09:01:35.320Z,17.05
2022-09-27T09:04:29.837Z,16.38
2022-09-27T09:07:16.247Z,16.42
2022-09-27T09:09:59.834Z,17.23
2022-09-27T09:12:50.106Z,17.25
2022-09-27T09:15:54.050Z,18.15
2022-09-27T09:18:45.068Z,17.25
2022-09-27T09:21:35.551Z,17.77
2022-09-27T09:24:25.617Z,18.92
2022-09-27T09:27:05.558Z,17.58
2022-09-27T09:30:30.281Z,17.15
2022-09-27T09:33:24.183Z,17.95
2022-09-27T09:36:02.640Z,18.60
2022-09-27T09:38:42.893Z,18.50
2022-09-27T09:41:24.735Z,19.55
2022-09-27T09:44:00.426Z,18.67
2022-09-27T09:46:40.185Z,19.52
2022-09-27T09:49:22.247Z,19.85
2022-09-27T09:51:58.205Z,20.02
2022-09-27T09:54:34.533Z,19.63
2022-09-27T09:57:13.994Z,18.67
2022-09-27T09:59:50.693Z,21.08
2022-09-27T10:02:31.246Z,21.10
2022-09-27T10:05:08.385Z,19.52
2022-09-27T10:07:40.868Z,21.13
2022-09-27T10:10:15.444Z,22.67
2022-09-27T10:13:19.810Z,21.33
2022-09-27T10:16:04.312Z,21.35
2022-09-27T10:18:39.817Z,20.75
2022-09-27T10:21:16.722Z,21.00
2022-09-27T10:24:12.421Z,22.15
2022-09-27T10:27:02.340Z,22.27
2022-09-27T10:29:38.266Z,22.52
2022-09-27T10:32:30.875Z,23.10
2022-09-27T10:35:37.960Z,21.58
2022-09-27T10:38:27.756Z,23.27
2022-09-27T10:41:25.087Z,22.58
2022-09-27T10:44:24.952Z,22.38
2022-09-27T10:47:13.987Z,22.70
2022-09-27T10:50:07.835Z,22.08
2022-09-27T10:53:14.153Z,21.70
2022-09-27T10:55:48.745Z,20.48
2022-09-27T10:58:27.060Z,20.45
2022-09-27T11:01:01.334Z,19.73
2022-09-27T11:03:34.268Z,20.55
2022-09-27T11:06:29.106Z,20.58
2022-09-27T11:09:18.938Z,19.45
2022-09-27T11:11:50.858Z,21.15
2022-09-27T11:14:23.304Z,20.88
2022-09-27T11:17:20.817Z,21.75
2022-09-27T11:20:16.633Z,20.90
2022-09-27T11:23:18.804Z,20.55
2022-09-27T11:26:10.465Z,22.10
2022-09-27T11:28:57.542Z,23.23
2022-09-27T11:32:13.541Z,22.15
2022-09-27T11:35:11.765Z,20.20
2022-09-27T11:37:51.212Z,20.10
2022-09-27T11:40:36.516Z,18.15
2022-09-27T11:43:30.831Z,18.17
2022-09-27T11:46:23.892Z,16.10
2022-09-27T11:49:27.450Z,17.63
2022-09-27T11:52:34.412Z,16.42
2022-09-27T11:55:21.281Z,15.88
2022-09-27T11:58:02.022Z,15.93
2022-09-27T12:00:53.236Z,14.88
2022-09-27T12:04:22.248Z,15.23
2022-09-27T12:07:02.538Z,14.88
2022-09-27T12:09:40.539Z,15.10
2022-09-27T12:12:19.321Z,15.10
2022-09-27T12:14:56.880Z,15.65
2022-09-27T12:17:32.293Z,15.50
2022-09-27T12:20:11.601Z,14.20
2022-09-27T12:22:59.506Z,14.93
2022-09-27T12:26:14.478Z,16.42
2022-09-27T12:28:52.133Z,14.75
2022-09-27T12:31:30.040Z,15.15
2022-09-27T12:34:19.948Z,14.60
2022-09-27T12:37:00.217Z,13.77
2022-09-27T12:39:44.178Z,12.82
2022-09-27T12:42:30.601Z,12.90
2022-09-27T12:45:03.011Z,11.57
2022-09-27T12:48:01.788Z,11.43
2022-09-27T12:50:41.210Z,11.45
2022-09-27T12:53:23.372Z,12.70
2022-09-27T12:56:10.848Z,14.02
2022-09-27T12:59:01.477Z,14.07
2022-09-27T13:02:01.079Z,14.77
2022-09-27T13:04:53.590Z,13.13
2022-09-27T13:07:47.553Z,13.45
2022-09-27T13:10:49.362Z,12.35
2022-09-27T13:13:39.952Z,12.57
2022-09-27T13:16:12.368Z,12.43
2022-09-27T13:19:01.631Z,11.85
2022-09-27T13:21:59.491Z,11.40
2022-09-27T13:24:56.235Z,11.60
2022-09-27T13:27:43.958Z,11.63
2022-09-27T13:30:47.541Z,10.90
2022-09-27T13:33:44.304Z,11.60
2022-09-27T13:36:32.621Z,11.15
2022-09-27T13:39:22.775Z,11.93
2022-09-27T13:42:39.423Z,10.38
2022-09-27T13:45:24.556Z,10.13
2022-09-27T13:47:57.054Z,10.35
2022-09-27T13:50:47.096Z,10.25
2022-09-27T13:53:29.351Z,11.55
2022-09-27T13:55:59.258Z,10.73
2022-09-27T13:58:53.483Z,11.30
2022-09-27T14:01:48.293Z,10.85
2022-09-27T14:04:24.143Z,11.15
2022-09-27T14:06:58.377Z,10.52
2022-09-27T14:09:33.036Z,10.48
2022-09-27T14:12:14.250Z,10.02
2022-09-27T14:14:45.645Z,11.00
2022-09-27T14:17:14.729Z,10.40
2022-09-27T14:19:48.647Z,9.60
2022-09-27T14:22:21.610Z,8.77
2022-09-27T14:25:20.527Z,9.02
2022-09-27T14:27:53.422Z,9.32
2022-09-27T14:30:46.727Z,9.15
2022-09-27T14:33:35.966Z,9.27
2022-09-27T14:36:45.218Z,8.63
2022-09-27T14:39:17.498Z,8.35
2022-09-27T14:41:48.131Z,9.10
2022-09-27T14:44:21.751Z,9.18
2022-09-27T14:47:12.009Z,9.02
2022-09-27T14:49:48.717Z,9.77
2022-09-27T14:52:24.311Z,9.00
2022-09-27T14:55:02.402Z,9.38
2022-09-27T14:57:35.340Z,9.70
2022-09-27T15:00:19.076Z,10.05
2022-09-27T15:02:54.339Z,9.60
2022-09-27T15:05:26.291Z,9.73
2022-09-27T15:07:58.266Z,10.30
2022-09-27T15:10:33.456Z,9.45
2022-09-27T15:13:05.171Z,10.02
2022-09-27T15:15:36.674Z,10.15
2022-09-27T15:18:43.158Z,10.52
2022-09-27T15:21:15.717Z,10.38
2022-09-27T15:23:46.863Z,10.18
2022-09-27T15:26:21.670Z,10.70
2022-09-27T15:28:53.165Z,10.23
2022-09-27T15:31:31.233Z,9.95
2022-09-27T15:34:02.272Z,9.38
2022-09-27T15:36:55.753Z,9.65
2022-09-27T15:39:32.405Z,10.32
2022-09-27T15:42:10.549Z,10.85
2022-09-27T15:44:47.992Z,11.18
2022-09-27T15:47:49.757Z,11.18
2022-09-27T15:50:41.223Z,10.65
2022-09-27T15:53:11.347Z,11.05
2022-09-27T15:55:45.263Z,10.88
2022-09-27T15:58:19.458Z,12.63
2022-09-27T16:00:57.690Z,12.50
2022-09-27T16:03:28.114Z,11.73
2022-09-27T16:06:01.228Z,12.20
2022-09-27T16:08:30.580Z,11.73
2022-09-27T16:11:03.341Z,12.13
2022-09-27T16:13:33.271Z,12.13
2022-09-27T16:16:04.232Z,12.77
2022-09-27T16:18:33.860Z,12.77
2022-09-27T16:21:04.252Z,13.88
2022-09-27T16:23:32.880Z,15.13
2022-09-27T16:26:01.424Z,15.30
2022-09-27T16:28:30.239Z,14.00
2022-09-27T16:31:05.023Z,13.82
2022-09-27T16:33:35.802Z,13.85
2022-09-27T16:36:14.533Z,15.27
2022-09-27T16:38:44.101Z,14.27
2022-09-27T16:41:12.894Z,14.63
2022-09-27T16:43:41.555Z,14.70
2022-09-27T16:46:11.777Z,13.07
2022-09-27T16:48:40.857Z,14.15
2022-09-27T16:51:35.002Z,14.48
2022-09-27T16:54:05.677Z,15.15
2022-09-27T16:56:35.697Z,16.17
2022-09-27T16:59:07.291Z,15.98
2022-09-27T17:01:36.613Z,15.35
2022-09-27T17:04:05.497Z,14.85
2022-09-27T17:06:36.855Z,15.18
2022-09-27T17:09:06.216Z,14.25
2022-09-27T17:11:35.156Z,15.45
2022-09-27T17:14:04.156Z,14.82
2022-09-27T17:16:33.145Z,15.00
2022-09-27T17:19:02.510Z,15.15
2022-09-27T17:21:35.636Z,15.80
2022-09-27T17:24:08.860Z,15.65
2022-09-27T17:26:37.830Z,15.18
2022-09-27T17:29:08.330Z,15.27
2022-09-27T17:31:40.617Z,13.90
2022-09-27T17:34:12.934Z,14.93
2022-09-27T17:36:48.192Z,14.80
2022-09-27T17:39:22.379Z,15.02
2022-09-27T17:41:51.740Z,14.57
2022-09-27T17:44:21.016Z,14.75
2022-09-27T17:47:10.494Z,13.88
2022-09-27T17:49:56.851Z,14.73
2022-09-27T17:52:25.867Z,15.55
2022-09-27T17:54:57.608Z,15.63
2022-09-27T17:57:26.722Z,16.55
2022-09-27T17:59:55.718Z,16.70
2022-09-27T18:02:24.478Z,17.67
2022-09-27T18:04:53.246Z,18.50
2022-09-27T18:07:22.311Z,18.10
2022-09-27T18:09:51.335Z,18.25
2022-09-27T18:12:21.901Z,18.85
2022-09-27T18:14:50.986Z,18.38
2022-09-27T18:17:19.723Z,18.75
2022-09-27T18:19:48.411Z,18.23
2022-09-27T18:22:17.397Z,16.92
2022-09-27T18:24:46.148Z,17.38
2022-09-27T18:27:18.245Z,17.20
2022-09-27T18:29:48.782Z,16.90
2022-09-27T18:32:17.642Z,17.88
2022-09-27T18:34:46.324Z,17.33
2022-09-27T18:37:15.255Z,17.80
2022-09-27T18:39:43.923Z,16.63
2022-09-27T18:42:12.715Z,16.17
2022-09-27T18:44:41.757Z,16.52
2022-09-27T18:47:11.806Z,14.98
2022-09-27T18:49:40.489Z,16.55
2022-09-27T18:52:09.419Z,15.38
2022-09-27T18:54:38.565Z,14.98
2022-09-27T18:57:07.271Z,15.98
2022-09-27T18:59:36.233Z,16.63
2022-09-27T19:02:05.097Z,15.25
2022-09-27T19:04:36.273Z,15.02
2022-09-27T19:07:05.141Z,15.57
2022-09-27T19:09:33.981Z,16.60
2022-09-27T19:12:03.305Z,16.65
2022-09-27T19:14:32.187Z,16.25
2022-09-27T19:17:00.870Z,15.98
2022-09-27T19:19:29.754Z,16.27
2022-09-27T19:21:59.951Z,16.67
2022-09-27T19:24:28.940Z,16.63
2022-09-27T19:26:57.536Z,14.75
2022-09-27T19:29:26.823Z,15.25
2022-09-27T19:31:55.469Z,14.93
2022-09-27T19:34:24.012Z,15.73
2022-09-27T19:36:52.777Z,14.98
2022-09-27T19:39:22.734Z,15.13
2022-09-27T19:41:51.321Z,14.15
2022-09-27T19:44:20.060Z,14.18
2022-09-27T19:46:48.646Z,14.13
2022-09-27T19:49:18.847Z,14.02
2022-09-27T19:51:47.593Z,14.35
2022-09-27T19:54:16.490Z,13.93
2022-09-27T19:56:46.862Z,13.40
2022-09-27T19:59:15.962Z,12.93
2022-09-27T20:01:44.714Z,13.25
2022-09-27T20:04:14.590Z,13.15
2022-09-27T20:06:43.172Z,13.20
2022-09-27T20:09:12.119Z,12.80
2022-09-27T20:11:40.694Z,13.23
2022-09-27T20:14:10.729Z,12.98
2022-09-27T20:16:41.551Z,12.38
2022-09-27T20:19:11.610Z,11.73
2022-09-27T20:21:40.911Z,12.63
2022-09-27T20:24:09.495Z,12.25
2022-09-27T20:26:38.209Z,13.10
2022-09-27T20:29:08.113Z,13.30
2022-09-27T20:31:56.984Z,12.63
2022-09-27T20:34:31.207Z,12.65
2022-09-27T20:36:59.746Z,13.48
2022-09-27T20:39:28.284Z,13.80
2022-09-27T20:41:57.046Z,14.20
2022-09-27T20:44:26.230Z,13.98
2022-09-27T20:46:56.150Z,13.70
2022-09-27T20:49:25.104Z,14.65
2022-09-27T20:51:53.621Z,13.88
2022-09-27T20:54:22.360Z,14.70
2022-09-27T20:56:51.365Z,15.05
2022-09-27T20:59:22.857Z,14.32
2022-09-27T21:01:53.451Z,15.23
2022-09-27T21:04:23.722Z,14.90
2022-09-27T21:06:53.134Z,14.50
2022-09-27T21:09:21.651Z,14.52
2022-09-27T21:11:51.884Z,15.10
2022-09-27T21:14:21.112Z,16.15
2022-09-27T21:16:49.831Z,16.90
2022-09-27T21:19:19.283Z,16.08
2022-09-27T21:21:51.912Z,19.00
2022-09-27T21:24:20.471Z,18.13
2022-09-27T21:26:49.927Z,19.85
2022-09-27T21:29:18.817Z,19.38
2022-09-27T21:31:47.427Z,19.48
2022-09-27T21:34:16.180Z,17.27
2022-09-27T21:36:44.765Z,19.63
2022-09-27T21:39:15.473Z,20.25
2022-09-27T21:41:44.237Z,17.98
2022-09-27T21:44:13.133Z,19.45
2022-09-27T21:46:43.896Z,18.17
2022-09-27T21:49:13.013Z,18.17
2022-09-27T21:51:44.523Z,18.20
2022-09-27T21:54:16.529Z,18.33
2022-09-27T21:56:45.798Z,19.13
2022-09-27T21:59:18.197Z,18.48
2022-09-27T22:01:47.891Z,20.35
2022-09-27T22:04:17.052Z,18.65
2022-09-27T22:06:45.672Z,18.98
2022-09-27T22:09:19.766Z,18.52
2022-09-27T22:11:48.279Z,19.00
2022-09-27T22:14:19.817Z,18.63
2022-09-27T22:16:48.868Z,18.75
2022-09-27T22:19:18.131Z,19.48
2022-09-27T22:21:47.305Z,19.95
2022-09-27T22:24:19.269Z,19.23
2022-09-27T22:26:52.858Z,19.42
2022-09-27T22:29:22.062Z,19.98
2022-09-27T22:31:50.879Z,20.67
2022-09-27T22:34:29.017Z,19.02
2022-09-27T22:37:00.881Z,20.23
2022-09-27T22:39:30.808Z,19.60
2022-09-27T22:41:59.552Z,18.80
2022-09-27T22:44:28.001Z,17.83
2022-09-27T22:46:56.794Z,19.10
2022-09-27T22:49:25.660Z,18.60
2022-09-27T22:51:54.191Z,18.17
2022-09-27T22:54:22.897Z,15.40
2022-09-27T22:56:57.409Z,16.17
2022-09-27T22:59:26.724Z,17.45
2022-09-27T23:01:56.149Z,19.33
2022-09-27T23:04:24.798Z,18.65
2022-09-27T23:06:53.473Z,18.15
2022-09-27T23:09:22.209Z,17.33
2022-09-27T23:11:52.073Z,18.58
2022-09-27T23:14:21.980Z,18.75
2022-09-27T23:16:50.732Z,19.77
2022-09-27T23:19:21.930Z,18.35
2022-09-27T23:21:50.650Z,18.85
2022-09-27T23:24:20.113Z,18.90
2022-09-27T23:27:09.009Z,19.88
2022-09-27T23:29:39.308Z,19.92
2022-09-27T23:32:07.820Z,21.13
2022-09-27T23:34:36.363Z,21.35
2022-09-27T23:37:05.990Z,19.00
2022-09-27T23:39:34.561Z,21.88
2022-09-27T23:42:03.306Z,20.55
2022-09-27T23:44:32.025Z,20.75
2022-09-27T23:47:02.478Z,19.85
2022-09-27T23:49:32.237Z,20.83
2022-09-27T23:52:01.689Z,19.15
2022-09-27T23:54:30.696Z,16.88
2022-09-27T23:56:59.654Z,15.98
2022-09-27T23:59:28.653Z,16.98
